EW9918 Weather Reports


time (UTC)temp
C
wind
direction
speed
KPH
gust
KPH
rain 1hr
cm
rain 24hr
cm
rain mn
cm
humidity
%
barometer
mb
20200229104016 7 45 1.6 3.2 0.00 0.00 0.00 57 1015.3
20200229103016 7 90 1.6 3.2 0.00 0.00 0.00 57 1015.3
20200229102017 7 0.0 0.0 0.00 0.00 0.00 56 1015.4
20200229101016 8 90 1.6 3.2 0.00 0.00 0.00 52 1015.4
20200229100016 10 90 1.6 3.2 0.00 0.00 0.00 48 1015.6
20200229095016 10 292 1.6 3.2 0.00 0.00 0.00 46 1015.7
20200229094016 11 292 1.6 1.6 0.00 0.00 0.00 45 1015.8
20200229093016 11 292 1.6 1.6 0.00 0.00 0.00 43 1015.9
20200229092016 12 292 1.6 3.2 0.00 0.00 0.00 41 1015.9
20200229091016 12 292 3.2 3.2 0.00 0.00 0.00 41 1016.1
20200229090016 12 292 3.2 3.2 0.00 0.00 0.00 41 1016.2
20200229085016 12 292 1.6 3.2 0.00 0.00 0.00 40 1016.3
20200229084019 12 0.0 1.6 0.00 0.00 0.00 40 1016.5
20200229083016 11 292 1.6 3.2 0.00 0.00 0.00 41 1016.5
20200229082019 12 0.0 1.6 0.00 0.00 0.00 40 1016.6
20200229081016 12 0.0 1.6 0.00 0.00 0.00 39 1016.5
20200229080016 13 0.0 1.6 0.00 0.00 0.00 38 1016.6
20200229075016 13 292 1.6 3.2 0.00 0.00 0.00 37 1016.8
20200229074016 13 292 1.6 3.2 0.00 0.00 0.00 37 1016.8
20200229073016 13 292 1.6 3.2 0.00 0.00 0.00 38 1017.0
20200229072016 13 292 3.2 4.8 0.00 0.00 0.00 38 1017.1
20200229071016 14 292 3.2 4.8 0.00 0.00 0.00 38 1017.2
20200229070018 14 315 3.2 3.2 0.00 0.00 0.00 37 1017.5
20200229065016 15 292 1.6 3.2 0.00 0.00 0.00 37 1017.5
20200229064016 14 292 3.2 3.2 0.00 0.00 0.00 37 1017.4
20200229063016 14 315 3.2 4.8 0.00 0.00 0.00 35 1017.3
20200229062016 15 292 3.2 4.8 0.00 0.00 0.00 34 1017.4
20200229061016 15 337 6.4 8.0 0.00 0.00 0.00 34 1017.4
20200229060016 14 337 8.0 9.7 0.00 0.00 0.00 34 1017.3
20200229055016 15 0 8.0 12.9 0.00 0.00 0.00 34 1017.3
20200229054016 16 0 6.4 8.0 0.00 0.00 0.00 33 1017.2
20200229053016 17 292 3.2 4.8 0.00 0.00 0.00 30 1017.1
20200229052016 17 315 4.8 6.4 0.00 0.00 0.00 30 1017.1
20200229051016 17 292 4.8 9.7 0.00 0.00 0.00 30 1017.2
20200229050016 17 315 4.8 8.0 0.00 0.00 0.00 29 1017.3
20200229045016 18 315 6.4 9.7 0.00 0.00 0.00 27 1017.3
20200229044016 18 292 3.2 4.8 0.00 0.00 0.00 26 1017.3
20200229043016 18 292 3.2 4.8 0.00 0.00 0.00 24 1017.3
20200229042016 18 270 3.2 4.8 0.00 0.00 0.00 23 1017.2
20200229041016 18 270 3.2 4.8 0.00 0.00 0.00 23 1017.2
20200229040015 18 292 3.2 6.4 0.00 0.00 0.00 22 1017.1
20200229035015 19 292 3.2 3.2 0.00 0.00 0.00 21 1017.1
20200229034016 19 270 1.6 3.2 0.00 0.00 0.00 21 1017.1
20200229033016 20 270 3.2 4.8 0.00 0.00 0.00 20 1017.0
20200229032016 20 270 3.2 4.8 0.00 0.00 0.00 20 1016.9
20200229031015 20 270 3.2 4.8 0.00 0.00 0.00 20 1016.6
20200229030016 20 270 3.2 3.2 0.00 0.00 0.00 21 1016.3
20200229025016 20 270 1.6 3.2 0.00 0.00 0.00 20 1016.3
20200229024016 20 270 3.2 3.2 0.00 0.00 0.00 20 1016.4
20200229023015 20 270 3.2 3.2 0.00 0.00 0.00 21 1016.4
20200229022016 20 270 3.2 4.8 0.00 0.00 0.00 22 1016.3
20200229021015 20 292 3.2 3.2 0.00 0.00 0.00 23 1016.2
20200229020015 20 270 1.6 3.2 0.00 0.00 0.00 23 1016.2
20200229015016 21 270 1.6 1.6 0.00 0.00 0.00 24 1016.3
20200229014016 21 270 1.6 3.2 0.00 0.00 0.00 23 1016.4
20200229013016 22 270 1.6 3.2 0.00 0.00 0.00 22 1016.1
20200229012015 23 270 3.2 3.2 0.00 0.00 0.00 20 1016.2
20200229011015 24 247 1.6 3.2 0.00 0.00 0.00 18 1016.3
20200229010016 24 247 1.6 3.2 0.00 0.00 0.00 17 1016.3
20200229005015 25 247 1.6 3.2 0.00 0.00 0.00 17 1016.4
20200229004015 25 247 1.6 3.2 0.00 0.00 0.00 17 1016.4
20200229003015 26 247 1.6 3.2 0.00 0.00 0.00 16 1016.7
20200229002016 26 247 3.2 4.8 0.00 0.00 0.00 15 1016.8
20200229001015 26 247 3.2 6.4 0.00 0.00 0.00 14 1016.7
20200229000015 27 247 3.2 6.4 0.00 0.00 0.00 14 1016.4
20200228235015 27 247 3.2 4.8 0.00 0.00 0.00 14 1016.3
20200228234015 27 247 1.6 3.2 0.00 0.00 0.00 14 1016.4
20200228233015 27 225 3.2 4.8 0.00 0.00 0.00 13 1016.4
20200228232016 27 315 1.6 3.2 0.00 0.00 0.00 12 1016.6
20200228231015 27 180 3.2 8.0 0.00 0.00 0.00 12 1016.6
20200228230015 27 202 4.8 6.4 0.00 0.00 0.00 11 1016.7
20200228225017 27 135 4.8 8.0 0.00 0.00 0.00 12 1016.7
20200228224018 27 157 3.2 4.8 0.00 0.00 0.00 11 1016.9
20200228223017 27 202 4.8 6.4 0.00 0.00 0.00 13 1016.9
20200228222015 27 135 3.2 6.4 0.00 0.00 0.00 11 1017.1
20200228221017 27 157 6.4 8.0 0.00 0.00 0.00 11 1017.0
20200228220018 27 157 3.2 3.2 0.00 0.00 0.00 10 1016.9
20200228215017 27 270 1.6 3.2 0.00 0.00 0.00 10 1016.9
20200228214017 27 180 4.8 6.4 0.00 0.00 0.00 11 1016.8
20200228213017 27 157 6.4 8.0 0.00 0.00 0.00 13 1016.7
20200228212017 27 157 3.2 6.4 0.00 0.00 0.00 12 1016.5
20200228211017 28 180 8.0 11.3 0.00 0.00 0.00 12 1016.6
20200228210017 27 157 9.7 14.5 0.00 0.00 0.00 12 1016.9
20200228205017 27 157 3.2 4.8 0.00 0.00 0.00 13 1016.9
20200228204019 27 180 3.2 4.8 0.00 0.00 0.00 13 1016.9
20200228203017 27 135 3.2 6.4 0.00 0.00 0.00 12 1016.9
20200228202017 27 180 6.4 8.0 0.00 0.00 0.00 13 1017.0
20200228201017 27 157 4.8 8.0 0.00 0.00 0.00 12 1017.3
20200228200018 27 202 1.6 3.2 0.00 0.00 0.00 13 1017.5
20200228195021 26 157 3.2 4.8 0.00 0.00 0.00 14 1017.9
20200228194017 26 180 9.7 12.9 0.00 0.00 0.00 14 1017.8
20200228193017 26 202 3.2 6.4 0.00 0.00 0.00 14 1018.1
20200228192017 26 180 12.9 16.1 0.00 0.00 0.00 14 1018.1
20200228191017 26 157 8.0 11.3 0.00 0.00 0.00 15 1018.3
20200228190016 26 180 8.0 9.7 0.00 0.00 0.00 15 1018.6
20200228185017 26 112 4.8 6.4 0.00 0.00 0.00 15 1018.6
20200228184017 26 180 12.9 17.7 0.00 0.00 0.00 15 1018.7
20200228183017 26 112 4.8 9.7 0.00 0.00 0.00 15 1018.6
20200228182016 26 112 6.4 12.9 0.00 0.00 0.00 16 1018.8
20200228181017 25 135 3.2 3.2 0.00 0.00 0.00 16 1018.9
20200228180016 25 135 6.4 8.0 0.00 0.00 0.00 16 1019.2
20200228175017 25 112 4.8 6.4 0.00 0.00 0.00 15 1019.1
20200228174017 24 157 1.6 3.2 0.00 0.00 0.00 16 1019.0
20200228173017 24 135 3.2 6.4 0.00 0.00 0.00 16 1019.2
20200228172017 23 157 1.6 4.8 0.00 0.00 0.00 17 1019.1
20200228171016 22 112 3.2 4.8 0.00 0.00 0.00 19 1019.0
20200228170016 21 67 1.6 3.2 0.00 0.00 0.00 20 1018.8
20200228165016 21 67 1.6 3.2 0.00 0.00 0.00 20 1018.9
20200228164016 20 22 1.6 1.6 0.00 0.00 0.00 19 1019.0
20200228163017 19 0 1.6 3.2 0.00 0.00 0.00 23 1018.8
20200228162016 19 0 1.6 3.2 0.00 0.00 0.00 22 1018.8
20200228161017 18 0 3.2 4.8 0.00 0.00 0.00 22 1018.7
20200228160016 18 0 4.8 6.4 0.00 0.00 0.00 22 1018.7
20200228155017 17 337 3.2 4.8 0.00 0.00 0.00 24 1018.8
20200228154016 16 292 3.2 3.2 0.00 0.00 0.00 25 1018.6
20200228153017 16 292 1.6 1.6 0.00 0.00 0.00 27 1018.4
20200228152016 15 315 1.6 3.2 0.00 0.00 0.00 28 1018.2
20200228151016 15 0.0 1.6 0.00 0.00 0.00 27 1018.0
20200228150016 15 0.0 0.0 0.00 0.00 0.00 30 1017.9
20200228145017 15 315 1.6 1.6 0.00 0.00 0.00 29 1017.9
20200228144018 15 0.0 0.0 0.00 0.00 0.00 31 1017.7
20200228143017 14 315 1.6 3.2 0.00 0.00 0.00 29 1017.8
20200228142016 13 0.0 1.6 0.00 0.00 0.00 29 1017.4
20200228141016 12 292 1.6 1.6 0.00 0.00 0.00 32 1017.4
20200228140016 12 292 1.6 1.6 0.00 0.00 0.00 34 1017.2
20200228135016 12 292 1.6 1.6 0.00 0.00 0.00 36 1017.0
20200228134016 12 0.0 0.0 0.00 0.00 0.00 40 1017.0
20200228133016 12 0.0 0.0 0.00 0.00 0.00 40 1016.8
20200228132016 11 0.0 1.6 0.00 0.00 0.00 40 1016.8
20200228131017 11 0.0 1.6 0.00 0.00 0.00 41 1016.8
20200228130017 11 0.0 1.6 0.00 0.00 0.00 43 1016.8
20200228125016 11 0.0 0.0 0.00 0.00 0.00 42 1016.8
20200228124016 11 0.0 3.2 0.00 0.00 0.00 41 1016.9
20200228123016 12 0.0 0.0 0.00 0.00 0.00 38 1016.9
20200228122016 12 0.0 0.0 0.00 0.00 0.00 36 1016.8
20200228121016 12 0.0 0.0 0.00 0.00 0.00 33 1016.9
20200228120016 13 0.0 1.6 0.00 0.00 0.00 32 1016.8
20200228115016 13 315 1.6 1.6 0.00 0.00 0.00 30 1016.7
20200228114016 13 315 1.6 3.2 0.00 0.00 0.00 30 1016.7
20200228113016 13 315 1.6 3.2 0.00 0.00 0.00 30 1016.6
20200228112016 13 315 1.6 3.2 0.00 0.00 0.00 32 1016.5
20200228111016 13 315 1.6 1.6 0.00 0.00 0.00 30 1016.4
20200228110018 13 315 1.6 3.2 0.00 0.00 0.00 30 1016.5
20200228105016 14 315 1.6 3.2 0.00 0.00 0.00 29 1016.4